createdAt,value
2022-10-09T00:01:10.296Z,2.95
2022-10-09T00:03:38.817Z,3.00
2022-10-09T00:06:08.399Z,2.88
2022-10-09T00:08:43.810Z,3.02
2022-10-09T00:11:19.836Z,2.94
2022-10-09T00:13:48.468Z,2.72
2022-10-09T00:16:16.874Z,2.51
2022-10-09T00:18:46.057Z,2.34
2022-10-09T00:21:33.469Z,2.51
2022-10-09T00:24:04.331Z,2.41
2022-10-09T00:26:31.024Z,2.51
2022-10-09T00:28:57.872Z,2.67
2022-10-09T00:31:24.910Z,2.55
2022-10-09T00:33:51.537Z,2.71
2022-10-09T00:36:21.198Z,2.59
2022-10-09T00:38:48.092Z,2.55
2022-10-09T00:41:20.607Z,2.70
2022-10-09T00:43:47.151Z,2.49
2022-10-09T00:46:23.635Z,2.55
2022-10-09T00:48:58.307Z,2.62
2022-10-09T00:51:25.066Z,2.55
2022-10-09T00:53:52.099Z,2.78
2022-10-09T00:56:18.901Z,2.82
2022-10-09T00:58:51.657Z,2.82
2022-10-09T01:01:18.571Z,2.84
2022-10-09T01:03:46.224Z,2.21
2022-10-09T01:06:24.326Z,2.18
2022-10-09T01:09:01.581Z,2.03
2022-10-09T01:11:45.399Z,1.76
2022-10-09T01:14:22.417Z,1.92
2022-10-09T01:16:58.603Z,1.93
2022-10-09T01:19:29.964Z,2.18
2022-10-09T01:22:34.180Z,2.10
2022-10-09T01:25:11.860Z,1.65
2022-10-09T01:27:38.849Z,1.80
2022-10-09T01:30:09.653Z,1.77
2022-10-09T01:32:43.313Z,1.64
2022-10-09T01:35:12.738Z,1.86
2022-10-09T01:37:42.392Z,2.01
2022-10-09T01:40:10.857Z,2.13
2022-10-09T01:42:38.298Z,2.30
2022-10-09T01:45:05.187Z,2.27
2022-10-09T01:47:34.369Z,2.26
2022-10-09T01:50:15.308Z,2.30
2022-10-09T01:53:06.333Z,1.74
2022-10-09T01:55:44.267Z,1.73
2022-10-09T01:58:37.996Z,1.93
2022-10-09T02:01:27.178Z,1.83
2022-10-09T02:03:56.956Z,2.01
2022-10-09T02:06:27.228Z,2.07
2022-10-09T02:08:55.380Z,2.31
2022-10-09T02:11:24.168Z,2.60
2022-10-09T02:13:54.928Z,2.76
2022-10-09T02:16:37.231Z,2.88
2022-10-09T02:19:12.847Z,3.08
2022-10-09T02:22:01.279Z,2.91
2022-10-09T02:24:28.859Z,2.81
2022-10-09T02:26:59.652Z,2.89
2022-10-09T02:29:26.409Z,2.60
2022-10-09T02:31:53.120Z,2.55
2022-10-09T02:34:20.937Z,2.38
2022-10-09T02:36:48.665Z,2.11
2022-10-09T02:39:15.667Z,2.20
2022-10-09T02:41:42.377Z,2.30
2022-10-09T02:44:09.351Z,1.68
2022-10-09T02:46:37.944Z,1.67
2022-10-09T02:49:05.580Z,1.88
2022-10-09T02:51:32.256Z,1.70
2022-10-09T02:53:59.773Z,1.53
2022-10-09T02:56:27.207Z,1.56
2022-10-09T02:58:54.049Z,1.29
2022-10-09T03:01:20.906Z,1.06
2022-10-09T03:03:48.620Z,1.06
2022-10-09T03:06:22.281Z,1.21
2022-10-09T03:08:50.675Z,1.04
2022-10-09T03:11:19.127Z,1.00
2022-10-09T03:13:48.453Z,1.06
2022-10-09T03:16:20.454Z,0.77
2022-10-09T03:18:48.091Z,0.82
2022-10-09T03:21:20.130Z,0.86
2022-10-09T03:23:47.040Z,0.54
2022-10-09T03:26:17.328Z,0.24
2022-10-09T03:28:47.939Z,0.37
2022-10-09T03:31:39.614Z,0.44
2022-10-09T03:34:06.585Z,0.16
2022-10-09T03:36:33.393Z,0.36
2022-10-09T03:39:00.015Z,0.16
2022-10-09T03:41:26.629Z,0.12
2022-10-09T03:43:53.301Z,0.33
2022-10-09T03:46:19.939Z,0.37
2022-10-09T03:48:46.528Z,0.32
2022-10-09T03:51:15.278Z,0.56
2022-10-09T03:53:44.844Z,0.52
2022-10-09T03:56:13.254Z,0.26
2022-10-09T03:58:39.799Z,0.49
2022-10-09T04:01:06.518Z,0.49
2022-10-09T04:03:33.943Z,0.11
2022-10-09T04:06:01.215Z,0.19
2022-10-09T04:08:30.052Z,0.23
2022-10-09T04:10:58.441Z,0.18
2022-10-09T04:13:25.114Z,0.26
2022-10-09T04:15:55.270Z,0.16
2022-10-09T04:18:22.223Z,0.10
2022-10-09T04:20:54.119Z,0.26
2022-10-09T04:23:25.507Z,0.33
2022-10-09T04:25:58.387Z,0.62
2022-10-09T04:28:26.534Z,0.85
2022-10-09T04:30:53.188Z,0.44
2022-10-09T04:33:20.214Z,0.33
2022-10-09T04:35:50.619Z,0.52
2022-10-09T04:38:17.291Z,0.46
2022-10-09T04:40:44.035Z,0.17
2022-10-09T04:43:10.745Z,0.30
2022-10-09T04:45:40.515Z,0.25
2022-10-09T04:48:07.168Z,0.02
2022-10-09T04:50:33.746Z,0.02
2022-10-09T04:53:00.279Z,0.02
2022-10-09T04:55:28.952Z,-0.24
2022-10-09T04:57:55.509Z,-0.05
2022-10-09T05:00:24.638Z,0.02
2022-10-09T05:02:51.665Z,-0.10
2022-10-09T05:05:19.204Z,0.30
2022-10-09T05:07:45.836Z,0.27
2022-10-09T05:10:12.588Z,-0.05
2022-10-09T05:12:39.306Z,-0.07
2022-10-09T05:15:06.591Z,0.16
2022-10-09T05:17:33.238Z,0.15
2022-10-09T05:19:59.842Z,-0.15
2022-10-09T05:22:28.396Z,0.01
2022-10-09T05:24:54.942Z,-0.23
2022-10-09T05:27:21.496Z,-0.27
2022-10-09T05:29:48.127Z,-0.05
2022-10-09T05:32:15.022Z,0.03
2022-10-09T05:34:41.651Z,-0.13
2022-10-09T05:37:08.239Z,-0.46
2022-10-09T05:39:36.018Z,-0.68
2022-10-09T05:42:02.685Z,-0.74
2022-10-09T05:44:29.295Z,-0.49
2022-10-09T05:46:55.827Z,-0.34
2022-10-09T05:49:22.496Z,-0.14
2022-10-09T05:51:52.031Z,-0.28
2022-10-09T05:54:18.611Z,-0.14
2022-10-09T05:56:45.620Z,0.29
2022-10-09T05:59:17.452Z,0.64
2022-10-09T06:01:47.075Z,0.53
2022-10-09T06:04:16.793Z,0.53
2022-10-09T06:06:44.160Z,0.30
2022-10-09T06:09:11.512Z,0.48
2022-10-09T06:11:42.168Z,0.58
2022-10-09T06:14:10.623Z,0.68
2022-10-09T06:16:39.334Z,0.80
2022-10-09T06:19:07.116Z,0.82
2022-10-09T06:21:34.352Z,0.91
2022-10-09T06:24:03.108Z,1.04
2022-10-09T06:26:32.470Z,1.24
2022-10-09T06:29:01.445Z,1.38
2022-10-09T06:31:34.940Z,1.51
2022-10-09T06:34:05.632Z,1.70
2022-10-09T06:36:34.671Z,1.80
2022-10-09T06:39:03.800Z,2.04
2022-10-09T06:41:30.772Z,2.22
2022-10-09T06:43:59.829Z,2.36
2022-10-09T06:46:35.580Z,2.50
2022-10-09T06:49:03.651Z,2.68
2022-10-09T06:51:31.373Z,2.76
2022-10-09T06:54:00.977Z,2.78
2022-10-09T06:56:29.913Z,2.78
2022-10-09T06:58:59.041Z,2.84
2022-10-09T07:01:27.274Z,2.90
2022-10-09T07:03:56.684Z,2.95
2022-10-09T07:06:30.062Z,3.03
2022-10-09T07:09:02.164Z,3.05
2022-10-09T07:11:37.288Z,3.11
2022-10-09T07:14:06.357Z,3.25
2022-10-09T07:16:38.728Z,3.31
2022-10-09T07:19:09.729Z,3.41
2022-10-09T07:21:39.287Z,3.51
2022-10-09T07:24:06.699Z,3.60
2022-10-09T07:26:37.605Z,3.72
2022-10-09T07:29:06.750Z,3.84
2022-10-09T07:31:35.816Z,3.97
2022-10-09T07:34:03.534Z,4.11
2022-10-09T07:36:30.266Z,4.21
2022-10-09T07:38:57.986Z,4.31
2022-10-09T07:41:27.488Z,4.41
2022-10-09T07:43:54.356Z,4.55
2022-10-09T07:46:28.541Z,4.65
2022-10-09T07:48:57.511Z,4.78
2022-10-09T07:51:26.780Z,4.90
2022-10-09T07:53:53.732Z,5.02
2022-10-09T07:56:23.629Z,5.13
2022-10-09T07:58:51.532Z,5.26
2022-10-09T08:01:20.326Z,5.33
2022-10-09T08:03:50.170Z,5.43
2022-10-09T08:06:18.585Z,5.51
2022-10-09T08:08:46.252Z,5.65
2022-10-09T08:11:15.339Z,5.72
2022-10-09T08:13:44.470Z,5.84
2022-10-09T08:16:13.285Z,5.94
2022-10-09T08:18:39.899Z,6.04
2022-10-09T08:21:19.292Z,6.13
2022-10-09T08:23:45.904Z,6.22
2022-10-09T08:26:20.055Z,6.28
2022-10-09T08:28:52.381Z,6.35
2022-10-09T08:31:19.298Z,6.44
2022-10-09T08:33:48.332Z,6.56
2022-10-09T08:36:17.951Z,6.63
2022-10-09T08:38:47.559Z,6.71
2022-10-09T08:41:29.176Z,6.97
2022-10-09T08:44:05.076Z,7.00
2022-10-09T08:46:34.386Z,7.07
2022-10-09T08:49:03.997Z,7.20
2022-10-09T08:51:36.400Z,7.31
2022-10-09T08:54:13.301Z,7.35
2022-10-09T08:56:39.849Z,7.47
2022-10-09T08:59:06.441Z,7.55
2022-10-09T09:01:45.633Z,7.66
2022-10-09T09:04:24.808Z,7.73
2022-10-09T09:07:13.516Z,7.77
2022-10-09T09:09:59.553Z,7.78
2022-10-09T09:12:34.392Z,7.82
2022-10-09T09:15:03.893Z,7.88
2022-10-09T09:17:36.566Z,7.98
2022-10-09T09:20:27.008Z,8.05
2022-10-09T09:22:53.579Z,8.09
2022-10-09T09:25:24.854Z,8.17
2022-10-09T09:27:54.164Z,8.23
2022-10-09T09:30:23.785Z,8.26
2022-10-09T09:33:05.533Z,8.32
2022-10-09T09:35:49.648Z,8.37
2022-10-09T09:38:16.433Z,8.44
2022-10-09T09:40:47.237Z,8.51
2022-10-09T09:43:21.161Z,8.58
2022-10-09T09:45:49.109Z,8.64
2022-10-09T09:48:21.979Z,8.72
2022-10-09T09:51:10.157Z,8.82
2022-10-09T09:53:46.127Z,8.91
2022-10-09T09:56:12.812Z,9.03
2022-10-09T09:58:46.285Z,9.02
2022-10-09T10:01:32.025Z,9.11
2022-10-09T10:04:02.660Z,9.21
2022-10-09T10:06:33.069Z,9.32
2022-10-09T10:09:14.575Z,9.33
2022-10-09T10:11:48.541Z,9.38
2022-10-09T10:14:17.548Z,9.46
2022-10-09T10:16:47.996Z,9.53
2022-10-09T10:19:22.429Z,9.59
2022-10-09T10:21:58.464Z,9.64
2022-10-09T10:24:34.939Z,9.71
2022-10-09T10:27:22.329Z,9.75
2022-10-09T10:29:52.844Z,9.80
2022-10-09T10:32:50.088Z,9.84
2022-10-09T10:35:21.116Z,9.88
2022-10-09T10:38:10.611Z,9.95
2022-10-09T10:40:52.821Z,10.07
2022-10-09T10:43:34.831Z,10.19
2022-10-09T10:46:33.638Z,10.28
2022-10-09T10:49:00.670Z,10.37
2022-10-09T10:51:52.118Z,10.51
2022-10-09T10:54:36.338Z,10.59
2022-10-09T10:57:11.534Z,10.63
2022-10-09T11:00:05.358Z,10.71
2022-10-09T11:03:09.367Z,10.77
2022-10-09T11:06:01.681Z,10.79
2022-10-09T11:08:46.063Z,10.87
2022-10-09T11:11:25.508Z,10.88
2022-10-09T11:13:57.269Z,10.93
2022-10-09T11:16:50.039Z,11.03
2022-10-09T11:19:41.726Z,11.06
2022-10-09T11:22:52.733Z,11.16
2022-10-09T11:25:31.188Z,11.13
2022-10-09T11:28:06.023Z,11.14
2022-10-09T11:31:14.581Z,11.19
2022-10-09T11:33:52.602Z,11.27
2022-10-09T11:36:33.776Z,11.27
2022-10-09T11:39:06.660Z,11.23
2022-10-09T11:41:35.859Z,11.24
2022-10-09T11:44:46.879Z,11.26
2022-10-09T11:47:41.109Z,11.25
2022-10-09T11:50:45.400Z,11.28
2022-10-09T11:53:18.671Z,11.24
2022-10-09T11:55:45.970Z,11.25
2022-10-09T11:58:21.444Z,11.25
2022-10-09T12:00:56.058Z,11.25
2022-10-09T12:03:33.678Z,11.27
2022-10-09T12:06:15.279Z,11.29
2022-10-09T12:09:03.088Z,11.29
2022-10-09T12:11:30.935Z,11.28
2022-10-09T12:14:03.732Z,11.32
2022-10-09T12:16:37.956Z,11.32
2022-10-09T12:19:15.807Z,11.26
2022-10-09T12:21:50.957Z,11.21
2022-10-09T12:24:26.226Z,11.21
2022-10-09T12:26:56.409Z,11.19
2022-10-09T12:29:31.752Z,11.18
2022-10-09T12:32:04.939Z,11.24
2022-10-09T12:34:36.753Z,11.22
2022-10-09T12:37:14.920Z,11.21
2022-10-09T12:39:42.597Z,11.21
2022-10-09T12:42:19.466Z,11.21
2022-10-09T12:44:48.398Z,11.22
2022-10-09T12:47:20.734Z,11.19
2022-10-09T12:50:19.935Z,11.15
2022-10-09T12:53:01.010Z,11.03
2022-10-09T12:55:32.465Z,11.01
2022-10-09T12:58:21.757Z,10.97
2022-10-09T13:00:54.964Z,10.95
2022-10-09T13:03:35.928Z,10.89
2022-10-09T13:06:05.570Z,10.90
2022-10-09T13:08:37.196Z,10.95
2022-10-09T13:11:28.583Z,10.94
2022-10-09T13:13:55.688Z,10.97
2022-10-09T13:16:24.293Z,11.04
2022-10-09T13:19:04.951Z,11.01
2022-10-09T13:21:35.234Z,10.99
2022-10-09T13:24:12.799Z,10.97
2022-10-09T13:26:42.531Z,10.95
2022-10-09T13:29:09.303Z,10.96
2022-10-09T13:31:37.080Z,11.02
2022-10-09T13:34:13.665Z,11.02
2022-10-09T13:36:40.994Z,11.04
2022-10-09T13:39:13.947Z,11.05
2022-10-09T13:41:42.248Z,11.07
2022-10-09T13:44:08.987Z,11.11
2022-10-09T13:46:35.816Z,11.15
2022-10-09T13:49:02.367Z,11.18
2022-10-09T13:51:29.687Z,11.15
2022-10-09T13:53:56.240Z,11.14
2022-10-09T13:56:22.847Z,11.15
2022-10-09T13:58:51.600Z,11.17
2022-10-09T14:01:18.352Z,11.18
2022-10-09T14:03:45.598Z,11.24
2022-10-09T14:06:13.060Z,11.25
2022-10-09T14:08:39.689Z,11.29
2022-10-09T14:11:06.579Z,11.28
2022-10-09T14:13:33.592Z,11.28
2022-10-09T14:16:05.361Z,11.25
2022-10-09T14:18:32.157Z,11.24
2022-10-09T14:20:59.014Z,11.24
2022-10-09T14:23:25.923Z,11.18
2022-10-09T14:25:52.548Z,11.19
2022-10-09T14:28:19.287Z,11.23
2022-10-09T14:30:45.943Z,11.26
2022-10-09T14:33:13.087Z,11.32
2022-10-09T14:35:39.976Z,11.39
2022-10-09T14:38:06.551Z,11.42
2022-10-09T14:40:33.149Z,11.48
2022-10-09T14:43:00.393Z,11.49
2022-10-09T14:45:29.039Z,11.48
2022-10-09T14:47:55.743Z,11.38
2022-10-09T14:50:22.303Z,11.34
2022-10-09T14:52:49.087Z,11.31
2022-10-09T14:55:16.112Z,11.25
2022-10-09T14:57:45.969Z,11.21
2022-10-09T15:00:15.557Z,11.19
2022-10-09T15:05:10.723Z,11.19
2022-10-09T15:07:38.096Z,11.14
2022-10-09T15:10:05.012Z,11.11
2022-10-09T15:12:31.679Z,11.11
2022-10-09T15:14:58.292Z,11.12
2022-10-09T15:17:24.950Z,11.08
2022-10-09T15:19:54.032Z,11.08
2022-10-09T15:22:20.664Z,11.06
2022-10-09T15:24:47.969Z,11.03
2022-10-09T15:27:14.637Z,10.98
2022-10-09T15:29:41.283Z,10.93
2022-10-09T15:32:08.006Z,10.91
2022-10-09T15:34:36.555Z,10.85
2022-10-09T15:37:06.694Z,10.77
2022-10-09T15:39:33.672Z,10.76
2022-10-09T15:42:00.479Z,10.50
2022-10-09T15:44:27.103Z,9.78
2022-10-09T15:46:53.731Z,9.84
2022-10-09T15:49:20.313Z,9.95
2022-10-09T15:51:46.897Z,10.02
2022-10-09T15:54:14.844Z,10.05
2022-10-09T15:56:42.347Z,9.64
2022-10-09T15:59:13.100Z,9.44
2022-10-09T16:01:39.875Z,9.65
2022-10-09T16:04:07.861Z,9.40
2022-10-09T16:06:34.524Z,9.40
2022-10-09T16:09:03.903Z,9.61
2022-10-09T16:11:31.366Z,9.45
2022-10-09T16:13:59.230Z,9.46
2022-10-09T16:16:27.851Z,9.67
2022-10-09T16:18:55.215Z,9.60
2022-10-09T16:21:26.195Z,9.51
2022-10-09T16:23:58.365Z,9.71
2022-10-09T16:26:26.132Z,9.45
2022-10-09T16:28:52.848Z,9.45
2022-10-09T16:31:25.892Z,9.65
2022-10-09T16:33:55.044Z,9.57
2022-10-09T16:36:21.846Z,9.45
2022-10-09T16:38:48.884Z,9.64
2022-10-09T16:41:18.980Z,9.79
2022-10-09T16:43:47.932Z,9.87
2022-10-09T16:49:01.381Z,9.85
2022-10-09T16:51:30.537Z,9.52
2022-10-09T16:53:59.031Z,9.46
2022-10-09T16:56:32.069Z,9.63
2022-10-09T16:59:00.804Z,9.45
2022-10-09T17:01:28.391Z,9.44
2022-10-09T17:03:56.103Z,9.60
2022-10-09T17:06:24.485Z,9.24
2022-10-09T17:08:58.512Z,9.27
2022-10-09T17:11:27.386Z,9.45
2022-10-09T17:13:56.786Z,9.13
2022-10-09T17:16:25.920Z,9.07
2022-10-09T17:18:54.336Z,9.26
2022-10-09T17:21:21.198Z,9.13
2022-10-09T17:23:48.343Z,9.08
2022-10-09T17:26:18.470Z,9.25
2022-10-09T17:28:46.527Z,9.08
2022-10-09T17:31:18.841Z,8.88
2022-10-09T17:33:48.393Z,9.03
2022-10-09T17:36:18.487Z,9.02
2022-10-09T17:38:45.567Z,8.64
2022-10-09T17:41:13.655Z,8.68
2022-10-09T17:43:40.745Z,8.79
2022-10-09T17:46:07.841Z,8.44
2022-10-09T17:48:35.790Z,8.25
2022-10-09T17:51:04.303Z,8.42
2022-10-09T17:53:31.234Z,8.23
2022-10-09T17:56:02.095Z,8.08
2022-10-09T17:58:28.772Z,8.18
2022-10-09T18:00:55.438Z,8.22
2022-10-09T18:03:22.896Z,7.93
2022-10-09T18:05:50.942Z,7.96
2022-10-09T18:08:19.592Z,8.19
2022-10-09T18:10:46.772Z,8.11
2022-10-09T18:13:13.543Z,8.04
2022-10-09T18:15:44.024Z,8.23
2022-10-09T18:18:11.384Z,8.22
2022-10-09T18:20:41.087Z,8.21
2022-10-09T18:23:08.729Z,8.34
2022-10-09T18:25:41.276Z,8.36
2022-10-09T18:28:08.184Z,8.30
2022-10-09T18:30:35.064Z,8.40
2022-10-09T18:33:01.612Z,8.58
2022-10-09T18:35:30.378Z,8.32
2022-10-09T18:37:57.065Z,8.10
2022-10-09T18:40:23.678Z,8.31
2022-10-09T18:42:50.595Z,8.29
2022-10-09T18:45:17.514Z,8.16
2022-10-09T18:47:44.400Z,8.39
2022-10-09T18:50:13.165Z,8.35
2022-10-09T18:52:41.580Z,8.27
2022-10-09T18:55:10.752Z,8.41
2022-10-09T18:57:39.721Z,8.43
2022-10-09T19:00:07.563Z,8.25
2022-10-09T19:02:34.237Z,8.29
2022-10-09T19:05:01.587Z,8.39
2022-10-09T19:07:31.064Z,8.10
2022-10-09T19:09:57.778Z,7.98
2022-10-09T19:12:25.086Z,8.23
2022-10-09T19:14:52.008Z,8.08
2022-10-09T19:17:19.188Z,8.17
2022-10-09T19:19:45.894Z,8.42
2022-10-09T19:22:16.405Z,8.54
2022-10-09T19:24:44.317Z,8.54
2022-10-09T19:27:11.355Z,8.65
2022-10-09T19:29:38.100Z,8.86
2022-10-09T19:32:04.694Z,8.81
2022-10-09T19:34:31.735Z,8.86
2022-10-09T19:36:59.085Z,9.06
2022-10-09T19:39:25.755Z,8.87
2022-10-09T19:41:52.368Z,8.83
2022-10-09T19:44:19.691Z,8.99
2022-10-09T19:46:46.884Z,8.92
2022-10-09T19:49:13.524Z,8.88
2022-10-09T19:51:40.576Z,9.05
2022-10-09T19:54:09.474Z,8.87
2022-10-09T19:56:37.188Z,8.86
2022-10-09T19:59:07.208Z,9.04
2022-10-09T20:01:35.994Z,8.88
2022-10-09T20:04:06.043Z,8.89
2022-10-09T20:06:33.576Z,9.05
2022-10-09T20:09:00.485Z,8.96
2022-10-09T20:11:27.333Z,8.94
2022-10-09T20:13:56.190Z,9.15
2022-10-09T20:16:24.767Z,8.95
2022-10-09T20:18:51.505Z,8.82
2022-10-09T20:21:18.253Z,9.02
2022-10-09T20:23:45.066Z,9.03
2022-10-09T20:26:15.376Z,8.89
2022-10-09T20:28:42.709Z,9.03
2022-10-09T20:31:14.800Z,9.00
2022-10-09T20:33:42.172Z,8.80
2022-10-09T20:36:17.649Z,8.91
2022-10-09T20:38:44.343Z,8.85
2022-10-09T20:41:11.695Z,8.72
2022-10-09T20:43:40.303Z,8.89
2022-10-09T20:46:15.080Z,8.96
2022-10-09T20:48:44.593Z,8.87
2022-10-09T20:51:11.189Z,9.08
2022-10-09T20:53:37.780Z,9.12
2022-10-09T20:56:11.270Z,9.05
2022-10-09T20:58:39.205Z,9.19
2022-10-09T21:01:07.935Z,9.27
2022-10-09T21:03:37.695Z,9.23
2022-10-09T21:06:08.460Z,9.40
2022-10-09T21:08:35.820Z,9.38
2022-10-09T21:11:09.095Z,9.26
2022-10-09T21:13:36.612Z,9.43
2022-10-09T21:16:10.935Z,9.42
2022-10-09T21:18:38.727Z,9.27
2022-10-09T21:21:17.556Z,9.42
2022-10-09T21:23:45.003Z,9.41
2022-10-09T21:26:13.260Z,9.27
2022-10-09T21:28:42.069Z,9.47
2022-10-09T21:31:10.772Z,9.41
2022-10-09T21:33:37.725Z,9.34
2022-10-09T21:36:10.776Z,9.52
2022-10-09T21:38:38.172Z,9.44
2022-10-09T21:41:05.003Z,9.39
2022-10-09T21:43:32.270Z,9.57
2022-10-09T21:45:58.865Z,9.49
2022-10-09T21:48:25.432Z,9.40
2022-10-09T21:50:52.093Z,9.58
2022-10-09T21:53:18.684Z,9.42
2022-10-09T21:55:45.264Z,9.28
2022-10-09T21:58:11.908Z,9.45
2022-10-09T22:00:38.610Z,9.40
2022-10-09T22:03:07.352Z,9.23
2022-10-09T22:05:34.558Z,9.40
2022-10-09T22:08:03.645Z,9.47
2022-10-09T22:10:32.416Z,9.31
2022-10-09T22:12:59.053Z,9.48
2022-10-09T22:15:25.723Z,9.45
2022-10-09T22:17:52.259Z,9.38
2022-10-09T22:20:18.868Z,9.47
2022-10-09T22:22:45.504Z,9.47
2022-10-09T22:25:12.264Z,9.31
2022-10-09T22:27:38.903Z,9.41
2022-10-09T22:30:05.972Z,9.44
2022-10-09T22:32:32.628Z,9.28
2022-10-09T22:35:01.307Z,9.34
2022-10-09T22:37:27.943Z,9.37
2022-10-09T22:39:56.645Z,9.21
2022-10-09T22:42:23.259Z,9.29
2022-10-09T22:44:49.989Z,9.49
2022-10-09T22:47:16.678Z,9.40
2022-10-09T22:49:43.359Z,9.51
2022-10-09T22:52:09.973Z,9.59
2022-10-09T22:54:38.848Z,9.48
2022-10-09T22:57:07.748Z,9.57
2022-10-09T22:59:36.155Z,9.65
2022-10-09T23:02:02.768Z,9.48
2022-10-09T23:04:30.139Z,9.59
2022-10-09T23:06:59.460Z,9.66
2022-10-09T23:09:31.702Z,9.53
2022-10-09T23:12:01.678Z,9.68
2022-10-09T23:14:28.436Z,9.87
2022-10-09T23:16:54.991Z,9.83
2022-10-09T23:19:21.623Z,9.67
2022-10-09T23:21:48.292Z,9.78
2022-10-09T23:24:17.499Z,9.94
2022-10-09T23:26:50.611Z,9.78
2022-10-09T23:29:18.777Z,9.84
2022-10-09T23:31:45.888Z,9.86
2022-10-09T23:34:13.198Z,9.73
2022-10-09T23:36:40.011Z,9.74
2022-10-09T23:39:07.020Z,9.94
2022-10-09T23:41:34.437Z,9.77
2022-10-09T23:44:01.149Z,9.78
2022-10-09T23:46:30.181Z,9.93
2022-10-09T23:48:57.282Z,9.84
2022-10-09T23:51:25.219Z,9.86
2022-10-09T23:53:52.099Z,10.09
2022-10-09T23:56:25.742Z,9.96
2022-10-09T23:58:53.744Z,9.82
